createdAt,value
2019-01-02T00:03:41.996Z,20.00
2019-01-02T00:08:43.890Z,17.57
2019-01-02T00:13:45.937Z,16.03
2019-01-02T00:18:47.821Z,20.30
2019-01-02T00:23:49.809Z,15.17
2019-01-02T00:28:52.058Z,21.33
2019-01-02T00:33:54.244Z,24.50
2019-01-02T00:38:56.662Z,27.00
2019-01-02T00:43:58.703Z,25.73
2019-01-02T00:49:00.722Z,23.10
2019-01-02T00:54:02.949Z,24.80
2019-01-02T00:59:04.871Z,30.47
2019-01-02T01:04:06.882Z,21.37
2019-01-02T01:09:08.953Z,27.33
2019-01-02T01:14:12.481Z,21.57
2019-01-02T01:19:14.371Z,33.97
2019-01-02T01:24:16.328Z,26.00
2019-01-02T01:29:18.252Z,29.53
2019-01-02T01:34:20.239Z,26.10
2019-01-02T01:39:22.145Z,29.07
2019-01-02T01:44:24.065Z,26.30
2019-01-02T01:49:26.562Z,24.30
2019-01-02T01:54:28.496Z,25.20
2019-01-02T01:59:30.680Z,23.47
2019-01-02T02:04:32.610Z,29.93
2019-01-02T02:09:34.805Z,21.30
2019-01-02T02:14:36.732Z,25.70
2019-01-02T02:19:38.614Z,27.17
2019-01-02T02:24:40.808Z,25.03
2019-01-02T02:29:43.017Z,22.63
2019-01-02T02:34:44.910Z,21.43
2019-01-02T02:39:46.799Z,30.50
2019-01-02T02:44:49.008Z,35.37
2019-01-02T02:49:51.307Z,30.50
2019-01-02T02:54:53.278Z,33.27
2019-01-02T02:59:55.211Z,25.30
2019-01-02T03:04:57.209Z,26.43
2019-01-02T03:09:59.499Z,31.73
2019-01-02T03:15:02.258Z,23.67
2019-01-02T03:20:05.116Z,27.07
2019-01-02T03:25:08.623Z,29.70
2019-01-02T03:30:13.490Z,38.83
2019-01-02T03:35:15.908Z,33.80
2019-01-02T03:40:17.816Z,29.90
2019-01-02T03:45:19.739Z,24.07
2019-01-02T03:50:21.735Z,24.07
2019-01-02T03:55:23.780Z,36.50
2019-01-02T04:00:26.100Z,20.47
2019-01-02T04:05:28.031Z,29.97
2019-01-02T04:10:29.969Z,30.90
2019-01-02T04:15:32.088Z,30.63
2019-01-02T04:20:33.978Z,31.10
2019-01-02T04:25:35.894Z,33.47
2019-01-02T04:30:37.843Z,35.60
2019-01-02T04:35:39.784Z,26.90
2019-01-02T04:40:41.730Z,27.67
2019-01-02T04:45:43.632Z,33.93
2019-01-02T04:50:45.545Z,28.67
2019-01-02T04:55:47.478Z,29.00
2019-01-02T05:00:49.566Z,26.43
2019-01-02T05:05:51.756Z,28.17
2019-01-02T05:10:53.893Z,29.53
2019-01-02T05:15:55.800Z,33.80
2019-01-02T05:20:57.707Z,34.83
2019-01-02T05:25:59.634Z,24.73
2019-01-02T05:31:01.663Z,24.60
2019-01-02T05:36:03.571Z,23.93
2019-01-02T05:41:05.486Z,20.37
2019-01-02T05:46:07.392Z,19.53
2019-01-02T05:51:09.291Z,22.10
2019-01-02T05:56:11.219Z,13.43
2019-01-02T06:01:14.129Z,19.77
2019-01-02T06:06:16.088Z,25.60
2019-01-02T06:11:18.299Z,18.77
2019-01-02T06:16:20.307Z,19.87
2019-01-02T06:21:22.218Z,17.13
2019-01-02T06:26:24.163Z,14.33
2019-01-02T06:31:26.195Z,16.33
2019-01-02T06:36:29.336Z,15.97
2019-01-02T06:41:31.257Z,12.00
2019-01-02T06:46:33.865Z,12.07
2019-01-02T06:51:35.760Z,13.20
2019-01-02T06:56:37.846Z,15.87
2019-01-02T07:01:39.867Z,13.70
2019-01-02T07:06:41.759Z,19.30
2019-01-02T07:11:43.919Z,13.73
2019-01-02T07:16:45.818Z,18.00
2019-01-02T07:21:47.746Z,19.80
2019-01-02T07:26:49.793Z,17.70
2019-01-02T07:31:51.966Z,20.17
2019-01-02T07:37:27.428Z,25.93
2019-01-02T07:43:10.443Z,17.70
2019-01-02T07:48:52.742Z,19.87
2019-01-02T07:54:52.372Z,17.67
2019-01-02T08:00:44.055Z,11.37
2019-01-02T08:06:50.675Z,13.33
2019-01-02T08:12:23.008Z,14.23
2019-01-02T08:17:59.460Z,13.47
2019-01-02T08:23:49.451Z,11.67
2019-01-02T08:29:42.156Z,16.50
2019-01-02T08:35:40.110Z,14.77
2019-01-02T08:41:15.595Z,11.20
2019-01-02T08:46:53.821Z,13.20
2019-01-02T08:52:37.639Z,13.73
2019-01-02T08:58:22.921Z,10.20
2019-01-02T09:03:40.777Z,15.87
2019-01-02T09:09:30.275Z,13.17
2019-01-02T09:14:56.388Z,13.70
2019-01-02T09:20:33.713Z,15.07
2019-01-02T09:26:06.456Z,13.17
2019-01-02T09:31:28.370Z,10.33
2019-01-02T09:37:10.815Z,9.50
2019-01-02T09:42:59.840Z,6.83
2019-01-02T09:48:30.633Z,9.83
2019-01-02T09:53:57.616Z,6.67
2019-01-02T09:59:36.584Z,6.87
2019-01-02T10:05:18.957Z,5.93
2019-01-02T10:10:51.502Z,9.47
2019-01-02T10:16:09.519Z,9.90
2019-01-02T10:21:31.078Z,5.07
2019-01-02T10:27:09.418Z,13.17
2019-01-02T10:32:38.906Z,9.23
2019-01-02T10:38:10.991Z,8.50
2019-01-02T10:43:50.297Z,6.57
2019-01-02T10:49:18.697Z,8.03
2019-01-02T10:54:47.776Z,7.27
2019-01-02T11:00:09.860Z,6.67
2019-01-02T11:06:06.236Z,7.00
2019-01-02T11:11:21.483Z,4.07
2019-01-02T11:16:52.403Z,7.47
2019-01-02T11:22:06.259Z,10.93
2019-01-02T11:28:04.290Z,11.03
2019-01-02T11:33:26.298Z,4.17
2019-01-02T11:38:48.652Z,8.27
2019-01-02T11:44:22.206Z,5.70
2019-01-02T11:49:24.117Z,5.20
2019-01-02T11:54:26.002Z,7.57
2019-01-02T11:59:27.930Z,6.60
2019-01-02T12:04:29.857Z,6.20
2019-01-02T12:09:31.745Z,6.23
2019-01-02T12:14:33.701Z,4.27
2019-01-02T12:19:35.862Z,3.33
2019-01-02T12:24:37.783Z,13.07
2019-01-02T12:29:39.749Z,4.83
2019-01-02T12:34:41.790Z,2.57
2019-01-02T12:39:43.679Z,5.67
2019-01-02T12:44:45.600Z,6.07
2019-01-02T12:49:47.519Z,2.97
2019-01-02T12:54:49.414Z,9.60
2019-01-02T12:59:51.428Z,6.57
2019-01-02T13:05:31.604Z,3.70
2019-01-02T13:10:41.060Z,3.70
2019-01-02T13:16:26.090Z,3.63
2019-01-02T13:21:49.928Z,4.43
2019-01-02T13:27:38.621Z,4.77
2019-01-02T13:32:57.420Z,2.27
2019-01-02T13:38:41.212Z,5.20
2019-01-02T13:44:09.735Z,6.17
2019-01-02T13:50:01.306Z,2.83
2019-01-02T13:55:07.685Z,3.10
2019-01-02T14:00:09.944Z,4.73
2019-01-02T14:05:15.205Z,3.73
2019-01-02T14:10:17.122Z,8.30
2019-01-02T14:15:19.098Z,2.87
2019-01-02T14:20:21.005Z,8.50
2019-01-02T14:25:22.957Z,3.60
2019-01-02T14:30:24.865Z,1.83
2019-01-02T14:35:26.972Z,3.43
2019-01-02T14:40:28.876Z,4.23
2019-01-02T14:45:31.115Z,12.17
2019-01-02T14:50:33.025Z,6.17
2019-01-02T14:55:35.265Z,6.63
2019-01-02T15:00:37.210Z,3.97
2019-01-02T15:05:39.118Z,7.23
2019-01-02T15:10:41.036Z,6.40
2019-01-02T15:15:43.479Z,7.83
2019-01-02T15:20:45.627Z,9.00
2019-01-02T15:25:47.600Z,4.73
2019-01-02T15:30:49.614Z,9.73
2019-01-02T15:35:51.525Z,4.53
2019-01-02T15:40:53.473Z,10.43
2019-01-02T15:45:55.396Z,8.27
2019-01-02T15:50:57.342Z,12.47
2019-01-02T15:55:59.359Z,11.50
2019-01-02T16:01:01.360Z,4.30
2019-01-02T16:06:04.424Z,9.57
2019-01-02T16:11:06.334Z,10.17
2019-01-02T16:16:10.134Z,11.23
2019-01-02T16:21:12.088Z,10.40
2019-01-02T16:26:14.012Z,5.87
2019-01-02T16:31:15.934Z,4.03
2019-01-02T16:36:17.877Z,1.77
2019-01-02T16:41:19.788Z,7.43
2019-01-02T16:46:21.730Z,4.47
2019-01-02T16:51:23.637Z,5.90
2019-01-02T16:56:25.587Z,2.87
2019-01-02T17:01:27.597Z,6.23
2019-01-02T17:06:29.500Z,6.40
2019-01-02T17:11:32.127Z,5.13
2019-01-02T17:16:34.111Z,5.17
2019-01-02T17:21:36.011Z,4.03
2019-01-02T17:26:37.958Z,3.33
2019-01-02T17:31:39.938Z,8.80
2019-01-02T17:36:42.199Z,2.00
2019-01-02T17:41:44.128Z,8.83
2019-01-02T17:46:46.185Z,3.40
2019-01-02T17:51:48.090Z,3.13
2019-01-02T17:56:50.059Z,6.77
2019-01-02T18:01:52.992Z,6.27
2019-01-02T18:06:54.890Z,6.27
2019-01-02T18:11:56.845Z,6.03
2019-01-02T18:16:58.780Z,5.77
2019-01-02T18:22:00.681Z,3.60
2019-01-02T18:27:02.917Z,5.87
2019-01-02T18:32:04.888Z,3.40
2019-01-02T18:37:06.795Z,5.87
2019-01-02T18:42:08.826Z,4.80
2019-01-02T18:47:10.743Z,2.47
2019-01-02T18:52:12.644Z,5.73
2019-01-02T18:57:15.078Z,4.37
2019-01-02T19:02:16.979Z,2.97
2019-01-02T19:07:18.881Z,8.80
2019-01-02T19:12:20.799Z,3.13
2019-01-02T19:17:22.730Z,4.10
2019-01-02T19:22:24.679Z,3.83
2019-01-02T19:27:26.619Z,6.37
2019-01-02T19:32:28.570Z,4.83
2019-01-02T19:37:30.636Z,3.87
2019-01-02T19:42:32.565Z,4.87
2019-01-02T19:47:34.505Z,6.30
2019-01-02T19:52:36.447Z,5.23
2019-01-02T19:57:38.343Z,3.53
2019-01-02T20:02:40.243Z,7.07
2019-01-02T20:07:42.177Z,6.10
2019-01-02T20:12:44.559Z,4.83
2019-01-02T20:24:16.654Z,6.83
2019-01-02T20:29:18.566Z,5.87
2019-01-02T20:34:20.510Z,7.43
2019-01-02T20:39:22.419Z,3.77
2019-01-02T20:44:24.334Z,5.57
2019-01-02T20:49:26.657Z,9.23
2019-01-02T20:54:28.575Z,9.43
2019-01-02T20:59:30.490Z,6.87
2019-01-02T21:04:32.409Z,2.77
2019-01-02T21:09:34.315Z,8.10
2019-01-02T21:14:36.519Z,10.20
2019-01-02T21:19:38.519Z,10.40
2019-01-02T21:24:40.761Z,9.83
2019-01-02T21:29:42.671Z,6.80
2019-01-02T21:34:44.589Z,7.40
2019-01-02T21:39:46.511Z,6.47
2019-01-02T21:44:49.447Z,3.63
2019-01-02T21:49:51.523Z,5.37
2019-01-02T21:54:53.539Z,16.60
2019-01-02T21:59:55.448Z,6.60
2019-01-02T22:04:57.378Z,6.93
2019-01-02T22:09:59.284Z,8.40
2019-01-02T22:15:01.208Z,9.97
2019-01-02T22:20:03.677Z,8.17
2019-01-02T22:25:06.359Z,5.67
2019-01-02T22:30:08.616Z,7.97
2019-01-02T22:35:10.616Z,7.70
2019-01-02T22:40:12.529Z,17.70
2019-01-02T22:45:14.620Z,6.10
2019-01-02T22:50:16.574Z,4.33
2019-01-02T22:55:18.483Z,6.10
2019-01-02T23:00:38.893Z,5.07
2019-01-02T23:06:00.310Z,5.40
2019-01-02T23:11:20.387Z,6.07
2019-01-02T23:16:58.932Z,7.33
2019-01-02T23:22:19.727Z,10.53
2019-01-02T23:27:46.936Z,5.57
2019-01-02T23:33:11.533Z,6.80
2019-01-02T23:38:31.901Z,9.47
2019-01-02T23:43:54.751Z,5.50
2019-01-02T23:49:15.326Z,6.90
